createdAt,value
2018-09-13T00:01:33.347Z,21.60
2018-09-13T00:04:02.222Z,21.60
2018-09-13T00:06:31.037Z,21.70
2018-09-13T00:08:59.953Z,21.60
2018-09-13T00:11:29.091Z,21.60
2018-09-13T00:13:58.068Z,21.50
2018-09-13T00:16:26.908Z,21.50
2018-09-13T00:18:55.693Z,21.40
2018-09-13T00:21:24.552Z,21.30
2018-09-13T00:23:53.345Z,21.30
2018-09-13T00:26:22.261Z,21.30
2018-09-13T00:28:51.156Z,21.20
2018-09-13T00:31:20.033Z,21.20
2018-09-13T00:33:49.118Z,21.20
2018-09-13T00:36:18.000Z,21.20
2018-09-13T00:38:46.999Z,21.10
2018-09-13T00:41:15.820Z,21.20
2018-09-13T00:43:44.741Z,21.20
2018-09-13T00:46:13.755Z,21.20
2018-09-13T00:48:42.862Z,21.20
2018-09-13T00:51:11.809Z,21.10
2018-09-13T00:53:40.770Z,21.10
2018-09-13T00:56:09.541Z,21.00
2018-09-13T00:58:38.433Z,21.00
2018-09-13T01:01:07.302Z,21.00
2018-09-13T01:03:36.081Z,20.80
2018-09-13T01:06:05.412Z,20.90
2018-09-13T01:08:34.268Z,20.80
2018-09-13T01:11:03.114Z,20.80
2018-09-13T01:13:32.017Z,20.80
2018-09-13T01:16:00.838Z,20.70
2018-09-13T01:18:29.668Z,20.70
2018-09-13T01:20:58.515Z,20.60
2018-09-13T01:23:27.398Z,20.50
2018-09-13T01:25:56.207Z,20.60
2018-09-13T01:28:25.131Z,20.50
2018-09-13T01:30:53.928Z,20.30
2018-09-13T01:33:22.744Z,20.30
2018-09-13T01:35:51.595Z,20.20
2018-09-13T01:38:20.462Z,20.20
2018-09-13T01:40:49.280Z,20.20
2018-09-13T01:43:18.152Z,20.30
2018-09-13T01:45:46.985Z,20.30
2018-09-13T01:48:15.874Z,20.30
2018-09-13T01:50:44.658Z,20.30
2018-09-13T01:53:13.468Z,20.20
2018-09-13T01:55:42.274Z,20.30
2018-09-13T01:58:11.666Z,20.30
2018-09-13T02:00:40.440Z,20.20
2018-09-13T02:03:09.266Z,20.20
2018-09-13T02:05:38.135Z,20.20
2018-09-13T02:08:06.970Z,20.20
2018-09-13T02:10:35.901Z,20.20
2018-09-13T02:13:04.704Z,20.00
2018-09-13T02:15:33.556Z,20.00
2018-09-13T02:18:02.317Z,20.00
2018-09-13T02:20:31.060Z,19.90
2018-09-13T02:22:59.929Z,19.90
2018-09-13T02:25:28.753Z,19.90
2018-09-13T02:27:57.561Z,19.90
2018-09-13T02:30:26.367Z,19.80
2018-09-13T02:32:55.150Z,19.90
2018-09-13T02:35:24.941Z,19.90
2018-09-13T02:37:54.126Z,19.80
2018-09-13T02:40:22.916Z,19.80
2018-09-13T02:42:51.781Z,19.90
2018-09-13T02:45:20.599Z,19.80
2018-09-13T02:47:49.357Z,19.80
2018-09-13T02:50:18.204Z,19.80
2018-09-13T02:52:47.050Z,19.90
2018-09-13T02:55:15.933Z,19.80
2018-09-13T02:57:44.768Z,19.90
2018-09-13T03:00:13.583Z,19.90
2018-09-13T03:02:42.397Z,20.00
2018-09-13T03:05:11.221Z,20.00
2018-09-13T03:07:40.110Z,20.00
2018-09-13T03:10:08.897Z,20.10
2018-09-13T03:12:37.849Z,20.10
2018-09-13T03:15:07.363Z,20.20
2018-09-13T03:17:37.091Z,20.20
2018-09-13T03:20:05.982Z,20.20
2018-09-13T03:22:34.824Z,20.10
2018-09-13T03:25:03.777Z,20.10
2018-09-13T03:27:32.641Z,20.20
2018-09-13T03:30:01.624Z,20.10
2018-09-13T03:32:30.514Z,20.00
2018-09-13T03:34:59.437Z,20.10
2018-09-13T03:37:28.306Z,20.10
2018-09-13T03:39:57.078Z,20.20
2018-09-13T03:42:25.934Z,20.20
2018-09-13T03:44:55.405Z,20.20
2018-09-13T03:47:24.264Z,20.10
2018-09-13T03:49:53.062Z,20.20
2018-09-13T03:52:21.876Z,20.30
2018-09-13T03:54:50.620Z,20.30
2018-09-13T03:57:19.381Z,20.30
2018-09-13T03:59:48.237Z,20.30
2018-09-13T04:02:17.029Z,20.30
2018-09-13T04:04:45.770Z,20.30
2018-09-13T04:07:14.585Z,20.40
2018-09-13T04:09:43.365Z,20.40
2018-09-13T04:12:12.117Z,20.30
2018-09-13T04:14:40.975Z,20.40
2018-09-13T04:17:09.762Z,20.30
2018-09-13T04:19:43.420Z,20.30
2018-09-13T04:22:12.911Z,20.30
2018-09-13T04:24:42.012Z,20.30
2018-09-13T04:27:10.974Z,20.30
2018-09-13T04:29:39.946Z,20.30
2018-09-13T04:32:08.759Z,20.10
2018-09-13T04:34:37.608Z,20.10
2018-09-13T04:37:06.711Z,20.20
2018-09-13T04:39:35.502Z,20.10
2018-09-13T04:42:04.336Z,20.10
2018-09-13T04:44:33.128Z,20.10
2018-09-13T04:47:01.879Z,20.10
2018-09-13T04:49:30.705Z,20.00
2018-09-13T04:51:59.567Z,20.10
2018-09-13T04:54:28.496Z,20.10
2018-09-13T04:56:57.404Z,20.10
2018-09-13T04:59:26.547Z,20.00
2018-09-13T05:01:55.381Z,20.00
2018-09-13T05:04:24.144Z,20.10
2018-09-13T05:06:53.426Z,20.00
2018-09-13T05:09:22.807Z,20.00
2018-09-13T05:11:52.263Z,20.00
2018-09-13T05:14:21.171Z,20.00
2018-09-13T05:16:49.972Z,20.00
2018-09-13T05:19:18.843Z,20.10
2018-09-13T05:21:47.757Z,20.10
2018-09-13T05:24:16.657Z,20.20
2018-09-13T05:26:45.985Z,20.20
2018-09-13T05:29:15.302Z,20.20
2018-09-13T05:31:44.227Z,20.30
2018-09-13T05:34:13.359Z,20.30
2018-09-13T05:36:42.196Z,20.40
2018-09-13T05:39:12.672Z,20.40
2018-09-13T05:41:42.349Z,20.40
2018-09-13T05:44:12.295Z,20.50
2018-09-13T05:46:42.559Z,20.60
2018-09-13T05:49:11.776Z,20.60
2018-09-13T05:51:40.679Z,20.70
2018-09-13T05:54:09.513Z,20.80
2018-09-13T05:56:38.405Z,20.90
2018-09-13T05:59:07.314Z,21.00
2018-09-13T06:01:36.219Z,21.30
2018-09-13T06:04:05.133Z,21.60
2018-09-13T06:06:34.089Z,21.80
2018-09-13T06:09:03.167Z,22.30
2018-09-13T06:11:32.355Z,22.70
2018-09-13T06:14:01.254Z,23.10
2018-09-13T06:16:30.407Z,23.30
2018-09-13T06:18:59.270Z,23.40
2018-09-13T06:21:29.575Z,23.40
2018-09-13T06:23:58.521Z,23.50
2018-09-13T06:26:27.412Z,23.50
2018-09-13T06:28:56.328Z,23.60
2018-09-13T06:31:25.351Z,23.70
2018-09-13T06:33:54.306Z,23.70
2018-09-13T06:36:23.304Z,23.80
2018-09-13T06:38:52.242Z,23.90
2018-09-13T06:41:21.118Z,24.00
2018-09-13T06:43:48.702Z,24.10
2018-09-13T06:46:16.161Z,24.20
2018-09-13T06:48:43.784Z,24.20
2018-09-13T06:51:11.204Z,24.20
2018-09-13T06:53:38.891Z,24.30
2018-09-13T06:56:06.390Z,24.30
2018-09-13T06:58:33.950Z,24.20
2018-09-13T07:01:01.500Z,24.20
2018-09-13T07:03:28.974Z,24.20
2018-09-13T07:05:56.465Z,24.10
2018-09-13T07:08:23.945Z,24.10
2018-09-13T07:10:51.523Z,24.00
2018-09-13T07:13:19.313Z,23.90
2018-09-13T07:15:46.969Z,23.80
2018-09-13T07:18:14.537Z,23.80
2018-09-13T07:20:42.049Z,23.80
2018-09-13T07:23:09.568Z,23.80
2018-09-13T07:25:37.068Z,23.80
2018-09-13T07:28:04.557Z,23.80
2018-09-13T07:30:32.058Z,23.70
2018-09-13T07:32:59.607Z,23.80
2018-09-13T07:35:27.107Z,23.70
2018-09-13T07:37:55.038Z,23.70
2018-09-13T07:40:22.578Z,23.70
2018-09-13T07:42:50.118Z,23.80
2018-09-13T07:45:17.623Z,23.80
2018-09-13T07:47:45.063Z,23.90
2018-09-13T07:50:12.543Z,24.00
2018-09-13T07:52:40.080Z,24.00
2018-09-13T07:55:07.620Z,24.00
2018-09-13T07:57:35.382Z,24.10
2018-09-13T08:00:02.956Z,24.20
2018-09-13T08:02:30.492Z,24.20
2018-09-13T08:04:58.304Z,24.10
2018-09-13T08:07:25.808Z,24.10
2018-09-13T08:09:53.972Z,24.00
2018-09-13T08:12:21.739Z,24.00
2018-09-13T08:14:49.301Z,23.90
2018-09-13T08:17:16.978Z,23.90
2018-09-13T08:19:44.599Z,23.90
2018-09-13T08:22:13.295Z,23.90
2018-09-13T08:24:40.979Z,23.80
2018-09-13T08:27:08.630Z,23.80
2018-09-13T08:29:36.220Z,23.80
2018-09-13T08:32:03.856Z,23.90
2018-09-13T08:34:33.901Z,23.90
2018-09-13T08:37:03.551Z,23.90
2018-09-13T08:39:32.668Z,24.00
2018-09-13T08:42:01.855Z,24.00
2018-09-13T08:44:31.081Z,24.00
2018-09-13T08:47:00.274Z,24.00
2018-09-13T08:49:29.753Z,24.10
2018-09-13T08:51:59.607Z,24.10
2018-09-13T08:54:29.277Z,24.10
2018-09-13T08:56:58.517Z,24.20
2018-09-13T08:59:28.412Z,24.30
2018-09-13T09:01:57.500Z,24.40
2018-09-13T09:04:26.880Z,24.50
2018-09-13T09:06:55.906Z,24.60
2018-09-13T09:09:24.905Z,24.70
2018-09-13T09:11:54.120Z,24.70
2018-09-13T09:14:23.199Z,24.80
2018-09-13T09:16:52.262Z,24.80
2018-09-13T09:19:21.348Z,25.00
2018-09-13T09:21:50.458Z,25.10
2018-09-13T09:24:19.540Z,25.20
2018-09-13T09:26:48.818Z,25.30
2018-09-13T09:29:17.911Z,25.40
2018-09-13T09:31:47.052Z,25.60
2018-09-13T09:34:16.962Z,25.80
2018-09-13T09:36:45.976Z,26.00
2018-09-13T09:39:16.078Z,26.20
2018-09-13T09:41:45.220Z,26.40
2018-09-13T09:44:14.457Z,26.50
2018-09-13T09:46:43.949Z,26.60
2018-09-13T09:49:12.814Z,26.70
2018-09-13T09:51:42.332Z,26.70
2018-09-13T09:54:11.620Z,26.70
2018-09-13T09:56:40.453Z,26.70
2018-09-13T09:59:09.471Z,26.80
2018-09-13T10:01:43.612Z,26.90
2018-09-13T10:04:12.854Z,26.80
2018-09-13T10:06:41.940Z,26.60
2018-09-13T10:09:10.955Z,26.70
2018-09-13T10:11:39.989Z,26.70
2018-09-13T10:14:08.989Z,26.90
2018-09-13T10:16:43.147Z,27.10
2018-09-13T10:19:17.373Z,27.20
2018-09-13T10:21:51.437Z,27.40
2018-09-13T10:26:30.433Z,27.10
2018-09-13T10:29:04.489Z,27.20
2018-09-13T10:31:38.597Z,27.30
2018-09-13T10:34:12.777Z,27.30
2018-09-13T10:36:46.746Z,27.30
2018-09-13T10:39:20.785Z,27.40
2018-09-13T10:41:55.174Z,27.40
2018-09-13T10:44:29.058Z,27.30
2018-09-13T10:47:03.612Z,27.10
2018-09-13T10:49:37.745Z,27.10
2018-09-13T10:52:12.529Z,27.00
2018-09-13T10:54:43.529Z,26.90
2018-09-13T10:57:18.003Z,26.80
2018-09-13T10:59:48.353Z,26.70
2018-09-13T11:02:17.817Z,26.60
2018-09-13T11:04:46.661Z,26.70
2018-09-13T11:07:15.577Z,26.60
2018-09-13T11:09:44.545Z,26.70
2018-09-13T11:12:13.411Z,26.80
2018-09-13T11:14:56.305Z,26.80
2018-09-13T11:17:26.067Z,26.70
2018-09-13T11:19:55.693Z,26.70
2018-09-13T11:22:24.585Z,26.50
2018-09-13T11:24:53.700Z,26.60
2018-09-13T11:27:22.803Z,26.70
2018-09-13T11:29:51.882Z,26.70
2018-09-13T11:32:20.921Z,26.40
2018-09-13T11:34:50.022Z,26.50
2018-09-13T11:37:18.872Z,26.50
2018-09-13T11:39:48.303Z,26.20
2018-09-13T11:42:17.378Z,26.30
2018-09-13T11:44:46.341Z,26.50
2018-09-13T11:47:15.262Z,26.50
2018-09-13T11:49:44.084Z,26.40
2018-09-13T11:52:13.070Z,26.50
2018-09-13T11:54:41.849Z,26.60
2018-09-13T11:57:10.895Z,26.60
2018-09-13T11:59:39.858Z,26.50
2018-09-13T12:02:08.717Z,26.60
2018-09-13T12:04:37.692Z,26.50
2018-09-13T12:07:06.656Z,26.40
2018-09-13T12:09:36.067Z,26.40
2018-09-13T12:12:05.072Z,26.40
2018-09-13T12:14:34.507Z,26.60
2018-09-13T12:17:03.428Z,26.60
2018-09-13T12:19:33.378Z,26.60
2018-09-13T12:22:02.325Z,26.40
2018-09-13T12:24:31.197Z,26.40
2018-09-13T12:27:00.173Z,26.40
2018-09-13T12:29:29.112Z,26.50
2018-09-13T12:31:58.222Z,26.50
2018-09-13T12:34:27.113Z,26.70
2018-09-13T12:36:55.957Z,26.60
2018-09-13T12:39:24.996Z,26.70
2018-09-13T12:41:54.041Z,26.80
2018-09-13T12:44:23.035Z,26.80
2018-09-13T12:46:52.205Z,26.80
2018-09-13T12:49:21.394Z,26.70
2018-09-13T12:51:50.417Z,26.70
2018-09-13T12:54:19.312Z,26.80
2018-09-13T12:56:48.345Z,26.90
2018-09-13T12:59:17.331Z,26.90
2018-09-13T13:01:46.531Z,27.00
2018-09-13T13:04:15.497Z,27.10
2018-09-13T13:06:45.895Z,27.10
2018-09-13T13:09:14.993Z,27.20
2018-09-13T13:11:44.309Z,27.30
2018-09-13T13:14:13.525Z,27.30
2018-09-13T13:16:42.637Z,27.10
2018-09-13T13:19:11.633Z,26.90
2018-09-13T13:21:40.648Z,26.90
2018-09-13T13:24:09.590Z,26.80
2018-09-13T13:26:38.570Z,26.70
2018-09-13T13:29:07.514Z,26.40
2018-09-13T13:31:36.583Z,26.20
2018-09-13T13:34:05.526Z,26.20
2018-09-13T13:36:34.787Z,26.20
2018-09-13T13:39:04.563Z,26.20
2018-09-13T13:41:33.633Z,26.10
2018-09-13T13:44:02.762Z,26.00
2018-09-13T13:46:31.830Z,26.10
2018-09-13T13:49:00.713Z,26.00
2018-09-13T13:51:29.638Z,26.00
2018-09-13T13:53:58.593Z,26.00
2018-09-13T13:56:29.818Z,25.90
2018-09-13T13:58:58.713Z,25.90
2018-09-13T14:01:27.779Z,25.90
2018-09-13T14:03:56.675Z,25.90
2018-09-13T14:06:25.519Z,25.80
2018-09-13T14:08:54.754Z,25.70
2018-09-13T14:11:23.783Z,25.50
2018-09-13T14:13:52.635Z,25.70
2018-09-13T14:16:21.629Z,25.70
2018-09-13T14:18:50.609Z,25.50
2018-09-13T14:21:19.647Z,25.50
2018-09-13T14:23:48.529Z,25.50
2018-09-13T14:26:17.411Z,25.40
2018-09-13T14:29:07.278Z,25.40
2018-09-13T14:31:36.303Z,25.40
2018-09-13T14:34:06.105Z,25.40
2018-09-13T14:36:34.863Z,25.50
2018-09-13T14:39:05.341Z,25.50
2018-09-13T14:41:34.219Z,25.40
2018-09-13T14:44:03.397Z,25.40
2018-09-13T14:46:32.206Z,25.40
2018-09-13T14:49:01.200Z,25.40
2018-09-13T14:51:29.992Z,25.40
2018-09-13T14:53:58.808Z,25.40
2018-09-13T14:56:27.753Z,25.50
2018-09-13T14:58:56.498Z,25.50
2018-09-13T15:01:25.588Z,25.50
2018-09-13T15:03:54.457Z,25.60
2018-09-13T15:06:23.345Z,25.60
2018-09-13T15:08:52.156Z,25.60
2018-09-13T15:11:22.459Z,25.60
2018-09-13T15:13:51.281Z,25.60
2018-09-13T15:16:20.049Z,25.70
2018-09-13T15:18:49.022Z,25.70
2018-09-13T15:21:17.817Z,25.70
2018-09-13T15:23:46.608Z,25.70
2018-09-13T15:26:15.383Z,25.70
2018-09-13T15:28:44.366Z,25.70
2018-09-13T15:31:13.179Z,25.70
2018-09-13T15:33:41.952Z,25.60
2018-09-13T15:36:10.714Z,25.50
2018-09-13T15:38:39.581Z,25.40
2018-09-13T15:41:08.347Z,25.30
2018-09-13T15:43:37.087Z,25.20
2018-09-13T15:46:05.873Z,25.00
2018-09-13T15:48:34.701Z,24.80
2018-09-13T15:51:03.719Z,24.60
2018-09-13T15:53:32.685Z,24.40
2018-09-13T15:56:02.317Z,24.30
2018-09-13T15:58:31.687Z,24.30
2018-09-13T16:01:00.477Z,24.20
2018-09-13T16:03:29.302Z,24.10
2018-09-13T16:05:58.100Z,24.00
2018-09-13T16:08:26.878Z,23.90
2018-09-13T16:10:55.883Z,23.80
2018-09-13T16:13:24.977Z,23.70
2018-09-13T16:15:53.803Z,23.60
2018-09-13T16:18:22.587Z,23.50
2018-09-13T16:20:51.457Z,23.50
2018-09-13T16:23:20.463Z,23.60
2018-09-13T16:25:49.244Z,23.60
2018-09-13T16:28:18.276Z,23.60
2018-09-13T16:30:47.081Z,23.60
2018-09-13T16:33:15.924Z,23.60
2018-09-13T16:35:49.601Z,23.60
2018-09-13T16:38:30.217Z,23.40
2018-09-13T16:41:05.143Z,23.20
2018-09-13T16:43:39.510Z,23.10
2018-09-13T16:46:09.786Z,23.10
2018-09-13T16:48:43.870Z,23.10
2018-09-13T16:51:13.648Z,23.10
2018-09-13T16:53:42.501Z,23.10
2018-09-13T16:56:11.273Z,23.00
2018-09-13T16:58:40.221Z,22.90
2018-09-13T17:01:09.755Z,22.80
2018-09-13T17:03:38.598Z,22.80
2018-09-13T17:06:08.730Z,22.70
2018-09-13T17:08:37.503Z,22.70
2018-09-13T17:11:06.538Z,22.70
2018-09-13T17:13:35.843Z,22.70
2018-09-13T17:16:04.733Z,22.60
2018-09-13T17:18:33.541Z,22.50
2018-09-13T17:21:02.328Z,22.40
2018-09-13T17:23:31.121Z,22.40
2018-09-13T17:25:59.917Z,22.30
2018-09-13T17:28:28.670Z,22.30
2018-09-13T17:30:58.513Z,22.20
2018-09-13T17:33:27.293Z,22.10
2018-09-13T17:35:56.071Z,22.00
2018-09-13T17:38:25.070Z,22.00
2018-09-13T17:40:54.208Z,21.90
2018-09-13T17:43:25.653Z,21.90
2018-09-13T17:45:55.360Z,21.90
2018-09-13T17:48:24.419Z,21.90
2018-09-13T17:50:53.717Z,21.80
2018-09-13T17:53:22.901Z,21.80
2018-09-13T17:55:51.976Z,21.70
2018-09-13T17:58:20.799Z,21.70
2018-09-13T18:00:49.960Z,21.70
2018-09-13T18:03:19.639Z,21.60
2018-09-13T18:05:48.868Z,21.60
2018-09-13T18:08:18.161Z,21.60
2018-09-13T18:10:46.944Z,21.60
2018-09-13T18:13:15.749Z,21.50
2018-09-13T18:15:44.825Z,21.50
2018-09-13T18:18:13.580Z,21.40
2018-09-13T18:20:42.405Z,21.40
2018-09-13T18:23:11.240Z,21.30
2018-09-13T18:25:43.199Z,21.40
2018-09-13T18:28:12.106Z,21.50
2018-09-13T18:30:40.946Z,21.40
2018-09-13T18:33:09.994Z,21.30
2018-09-13T18:35:38.946Z,21.30
2018-09-13T18:38:08.185Z,21.30
2018-09-13T18:40:37.207Z,21.20
2018-09-13T18:43:06.200Z,21.20
2018-09-13T18:45:35.131Z,21.20
2018-09-13T18:48:04.072Z,21.30
2018-09-13T18:50:32.962Z,21.30
2018-09-13T18:53:01.909Z,21.20
2018-09-13T18:55:31.014Z,21.20
2018-09-13T18:57:59.891Z,21.20
2018-09-13T19:00:28.696Z,21.30
2018-09-13T19:02:57.788Z,21.30
2018-09-13T19:05:27.012Z,21.30
2018-09-13T19:07:56.527Z,21.20
2018-09-13T19:10:25.341Z,21.20
2018-09-13T19:12:54.199Z,21.20
2018-09-13T19:15:23.166Z,21.20
2018-09-13T19:17:52.391Z,21.10
2018-09-13T19:20:21.437Z,21.10
2018-09-13T19:22:50.736Z,21.20
2018-09-13T19:25:19.687Z,21.20
2018-09-13T19:27:48.457Z,21.10
2018-09-13T19:30:17.309Z,21.10
2018-09-13T19:32:51.058Z,21.10
2018-09-13T19:35:27.634Z,21.10
2018-09-13T19:37:57.263Z,21.00
2018-09-13T19:40:28.224Z,21.00
2018-09-13T19:43:01.769Z,21.10
2018-09-13T19:45:33.785Z,21.20
2018-09-13T19:48:03.805Z,21.10
2018-09-13T19:50:33.556Z,21.00
2018-09-13T19:53:04.161Z,21.00
2018-09-13T19:55:39.528Z,21.00
2018-09-13T19:58:09.239Z,21.00
2018-09-13T20:00:52.314Z,21.00
2018-09-13T20:03:25.603Z,20.90
2018-09-13T20:05:55.172Z,20.90
2018-09-13T20:08:24.773Z,21.00
2018-09-13T20:10:53.878Z,21.00
2018-09-13T20:13:23.072Z,21.00
2018-09-13T20:15:52.159Z,21.00
2018-09-13T20:18:21.459Z,21.00
2018-09-13T20:20:51.449Z,20.90
2018-09-13T20:23:21.815Z,20.90
2018-09-13T20:25:52.694Z,20.80
2018-09-13T20:28:24.640Z,20.80
2018-09-13T20:30:53.710Z,20.80
2018-09-13T20:33:22.631Z,20.80
2018-09-13T20:35:51.596Z,20.70
2018-09-13T20:38:20.453Z,20.70
2018-09-13T20:40:49.734Z,20.70
2018-09-13T20:43:18.830Z,20.60
2018-09-13T20:45:48.316Z,20.50
2018-09-13T20:48:17.778Z,20.60
2018-09-13T20:50:46.884Z,20.50
2018-09-13T20:53:16.081Z,20.50
2018-09-13T20:55:45.010Z,20.50
2018-09-13T20:58:14.465Z,20.40
2018-09-13T21:00:43.697Z,20.50
2018-09-13T21:03:12.640Z,20.50
2018-09-13T21:05:41.896Z,20.50
2018-09-13T21:08:10.907Z,20.40
2018-09-13T21:10:40.802Z,20.50
2018-09-13T21:13:09.867Z,20.50
2018-09-13T21:15:39.081Z,20.40
2018-09-13T21:18:09.980Z,20.50
2018-09-13T21:20:39.538Z,20.50
2018-09-13T21:23:09.619Z,20.50
2018-09-13T21:25:40.434Z,20.50
2018-09-13T21:28:09.420Z,20.50
2018-09-13T21:30:38.965Z,20.40
2018-09-13T21:33:09.615Z,20.40
2018-09-13T21:35:38.685Z,20.30
2018-09-13T21:38:07.564Z,20.40
2018-09-13T21:40:39.485Z,20.40
2018-09-13T21:43:08.671Z,20.40
2018-09-13T21:45:38.480Z,20.40
2018-09-13T21:48:07.679Z,20.40
2018-09-13T21:50:36.502Z,20.40
2018-09-13T21:53:05.478Z,20.40
2018-09-13T21:55:34.366Z,20.40
2018-09-13T21:58:03.202Z,20.50
2018-09-13T22:00:32.049Z,20.50
2018-09-13T22:03:00.833Z,20.50
2018-09-13T22:05:29.705Z,20.40
2018-09-13T22:07:58.528Z,20.50
2018-09-13T22:10:27.308Z,20.50
2018-09-13T22:12:56.058Z,20.40
2018-09-13T22:15:25.115Z,20.50
2018-09-13T22:17:53.841Z,20.50
2018-09-13T22:20:23.305Z,20.50
2018-09-13T22:22:52.478Z,20.50
2018-09-13T22:25:21.454Z,20.50
2018-09-13T22:27:53.156Z,20.50
2018-09-13T22:30:23.234Z,20.40
2018-09-13T22:32:52.948Z,20.40
2018-09-13T22:35:22.246Z,20.30
2018-09-13T22:37:51.304Z,20.30
2018-09-13T22:40:20.787Z,20.30
2018-09-13T22:42:50.002Z,20.30
2018-09-13T22:45:19.502Z,20.20
2018-09-13T22:47:57.488Z,20.20
2018-09-13T22:50:26.680Z,20.20
2018-09-13T22:52:56.059Z,20.20
2018-09-13T22:55:50.543Z,20.20
2018-09-13T22:58:19.475Z,20.20
2018-09-13T23:00:55.580Z,20.20
2018-09-13T23:03:24.874Z,20.30
2018-09-13T23:05:53.717Z,20.30
2018-09-13T23:08:27.183Z,20.30
2018-09-13T23:10:56.214Z,20.20
2018-09-13T23:13:25.330Z,20.20
2018-09-13T23:15:54.134Z,20.30
2018-09-13T23:18:22.804Z,20.30
2018-09-13T23:20:51.573Z,20.20
2018-09-13T23:23:20.251Z,20.20
2018-09-13T23:25:49.496Z,20.20
2018-09-13T23:28:18.331Z,20.20
2018-09-13T23:30:46.988Z,20.20
2018-09-13T23:33:15.743Z,20.30
2018-09-13T23:35:44.485Z,20.30
2018-09-13T23:38:13.229Z,20.40
2018-09-13T23:40:42.016Z,20.30
2018-09-13T23:43:10.713Z,20.30
2018-09-13T23:45:40.019Z,20.20
2018-09-13T23:48:09.189Z,20.30
2018-09-13T23:50:37.932Z,20.30
2018-09-13T23:53:06.633Z,20.30
2018-09-13T23:55:35.399Z,20.30
2018-09-13T23:58:04.163Z,20.30
